sensor_id;sensor_type;location;lat;lon;timestamp;P1;durP1;ratioP1;P2;durP2;ratioP2
74908;SDS011;63468;52.058;4.824;2023-06-10T00:02:28;16.13;;;13.27;;
74908;SDS011;63468;52.058;4.824;2023-06-10T00:04:53;14.93;;;13.43;;
74908;SDS011;63468;52.058;4.824;2023-06-10T00:07:19;15.27;;;13.60;;
74908;SDS011;63468;52.058;4.824;2023-06-10T00:09:44;15.30;;;13.45;;
74908;SDS011;63468;52.058;4.824;2023-06-10T00:12:10;16.08;;;12.95;;
74908;SDS011;63468;52.058;4.824;2023-06-10T00:14:39;15.63;;;12.65;;
74908;SDS011;63468;52.058;4.824;2023-06-10T00:17:06;14.73;;;13.27;;
74908;SDS011;63468;52.058;4.824;2023-06-10T00:19:34;14.63;;;13.05;;
74908;SDS011;63468;52.058;4.824;2023-06-10T00:22:00;14.55;;;12.13;;
74908;SDS011;63468;52.058;4.824;2023-06-10T00:24:25;15.63;;;12.68;;
74908;SDS011;63468;52.058;4.824;2023-06-10T00:26:51;14.63;;;13.13;;
74908;SDS011;63468;52.058;4.824;2023-06-10T00:29:16;16.70;;;13.80;;
74908;SDS011;63468;52.058;4.824;2023-06-10T00:31:41;17.02;;;12.52;;
74908;SDS011;63468;52.058;4.824;2023-06-10T00:34:07;15.13;;;13.35;;
74908;SDS011;63468;52.058;4.824;2023-06-10T00:36:32;15.60;;;12.95;;
74908;SDS011;63468;52.058;4.824;2023-06-10T00:38:58;14.52;;;13.02;;
74908;SDS011;63468;52.058;4.824;2023-06-10T00:41:23;14.48;;;12.30;;
74908;SDS011;63468;52.058;4.824;2023-06-10T00:43:48;13.85;;;12.43;;
74908;SDS011;63468;52.058;4.824;2023-06-10T00:46:14;14.50;;;12.40;;
74908;SDS011;63468;52.058;4.824;2023-06-10T00:48:40;13.77;;;12.35;;
74908;SDS011;63468;52.058;4.824;2023-06-10T00:51:06;16.85;;;12.15;;
74908;SDS011;63468;52.058;4.824;2023-06-10T00:53:34;13.55;;;11.68;;
74908;SDS011;63468;52.058;4.824;2023-06-10T00:55:59;14.27;;;12.80;;
74908;SDS011;63468;52.058;4.824;2023-06-10T00:58:25;17.20;;;12.32;;
74908;SDS011;63468;52.058;4.824;2023-06-10T01:00:51;14.63;;;11.73;;
74908;SDS011;63468;52.058;4.824;2023-06-10T01:03:16;13.75;;;11.35;;
74908;SDS011;63468;52.058;4.824;2023-06-10T01:05:43;14.65;;;11.63;;
74908;SDS011;63468;52.058;4.824;2023-06-10T01:08:10;14.95;;;12.32;;
74908;SDS011;63468;52.058;4.824;2023-06-10T01:10:57;13.15;;;11.85;;
74908;SDS011;63468;52.058;4.824;2023-06-10T01:13:27;13.30;;;11.82;;
74908;SDS011;63468;52.058;4.824;2023-06-10T01:15:56;13.27;;;11.90;;
74908;SDS011;63468;52.058;4.824;2023-06-10T01:18:22;13.65;;;11.65;;
74908;SDS011;63468;52.058;4.824;2023-06-10T01:20:48;13.90;;;12.40;;
74908;SDS011;63468;52.058;4.824;2023-06-10T01:23:14;15.77;;;12.32;;
74908;SDS011;63468;52.058;4.824;2023-06-10T01:25:41;17.55;;;12.02;;
74908;SDS011;63468;52.058;4.824;2023-06-10T01:33:41;14.15;;;11.95;;
74908;SDS011;63468;52.058;4.824;2023-06-10T01:36:08;14.02;;;12.52;;
74908;SDS011;63468;52.058;4.824;2023-06-10T01:38:36;12.93;;;11.52;;
74908;SDS011;63468;52.058;4.824;2023-06-10T01:43:34;12.35;;;10.93;;
74908;SDS011;63468;52.058;4.824;2023-06-10T01:45:59;15.15;;;12.05;;
74908;SDS011;63468;52.058;4.824;2023-06-10T01:48:25;13.68;;;11.32;;
74908;SDS011;63468;52.058;4.824;2023-06-10T01:50:50;12.98;;;11.50;;
74908;SDS011;63468;52.058;4.824;2023-06-10T01:53:15;13.13;;;11.27;;
74908;SDS011;63468;52.058;4.824;2023-06-10T01:55:41;12.65;;;11.35;;
74908;SDS011;63468;52.058;4.824;2023-06-10T01:58:06;12.27;;;10.93;;
74908;SDS011;63468;52.058;4.824;2023-06-10T02:00:31;13.48;;;11.07;;
74908;SDS011;63468;52.058;4.824;2023-06-10T02:02:57;13.93;;;12.35;;
74908;SDS011;63468;52.058;4.824;2023-06-10T02:05:22;17.63;;;12.50;;
74908;SDS011;63468;52.058;4.824;2023-06-10T02:07:48;15.95;;;11.60;;
74908;SDS011;63468;52.058;4.824;2023-06-10T02:10:13;15.52;;;11.52;;
74908;SDS011;63468;52.058;4.824;2023-06-10T02:12:38;13.60;;;11.18;;
74908;SDS011;63468;52.058;4.824;2023-06-10T02:15:03;13.73;;;11.05;;
74908;SDS011;63468;52.058;4.824;2023-06-10T02:17:29;12.52;;;10.30;;
74908;SDS011;63468;52.058;4.824;2023-06-10T02:19:55;15.73;;;12.52;;
74908;SDS011;63468;52.058;4.824;2023-06-10T02:22:22;14.35;;;10.90;;
74908;SDS011;63468;52.058;4.824;2023-06-10T02:24:49;13.20;;;10.75;;
74908;SDS011;63468;52.058;4.824;2023-06-10T02:27:15;16.05;;;11.35;;
74908;SDS011;63468;52.058;4.824;2023-06-10T02:29:41;12.75;;;11.45;;
74908;SDS011;63468;52.058;4.824;2023-06-10T02:32:07;14.60;;;11.45;;
74908;SDS011;63468;52.058;4.824;2023-06-10T02:34:32;13.90;;;10.30;;
74908;SDS011;63468;52.058;4.824;2023-06-10T02:36:58;17.35;;;11.43;;
74908;SDS011;63468;52.058;4.824;2023-06-10T02:39:24;13.60;;;11.07;;
74908;SDS011;63468;52.058;4.824;2023-06-10T02:41:49;13.82;;;11.23;;
74908;SDS011;63468;52.058;4.824;2023-06-10T02:44:15;14.73;;;11.50;;
74908;SDS011;63468;52.058;4.824;2023-06-10T02:46:40;16.23;;;11.70;;
74908;SDS011;63468;52.058;4.824;2023-06-10T02:49:05;13.93;;;11.38;;
74908;SDS011;63468;52.058;4.824;2023-06-10T02:51:30;13.20;;;11.30;;
74908;SDS011;63468;52.058;4.824;2023-06-10T02:53:56;14.15;;;10.43;;
74908;SDS011;63468;52.058;4.824;2023-06-10T02:56:21;18.15;;;11.73;;
74908;SDS011;63468;52.058;4.824;2023-06-10T02:58:47;14.27;;;10.95;;
74908;SDS011;63468;52.058;4.824;2023-06-10T03:01:13;13.38;;;10.50;;
74908;SDS011;63468;52.058;4.824;2023-06-10T03:03:39;15.80;;;11.45;;
74908;SDS011;63468;52.058;4.824;2023-06-10T03:06:07;12.48;;;10.77;;
74908;SDS011;63468;52.058;4.824;2023-06-10T03:08:35;13.43;;;10.75;;
74908;SDS011;63468;52.058;4.824;2023-06-10T03:11:00;18.73;;;11.68;;
74908;SDS011;63468;52.058;4.824;2023-06-10T03:13:26;13.43;;;10.75;;
74908;SDS011;63468;52.058;4.824;2023-06-10T03:15:51;14.32;;;11.13;;
74908;SDS011;63468;52.058;4.824;2023-06-10T03:18:16;14.30;;;11.60;;
74908;SDS011;63468;52.058;4.824;2023-06-10T03:20:42;13.88;;;11.48;;
74908;SDS011;63468;52.058;4.824;2023-06-10T03:23:11;13.63;;;11.88;;
74908;SDS011;63468;52.058;4.824;2023-06-10T03:25:36;12.38;;;11.00;;
74908;SDS011;63468;52.058;4.824;2023-06-10T03:28:01;18.30;;;11.70;;
74908;SDS011;63468;52.058;4.824;2023-06-10T03:30:27;13.60;;;12.10;;
74908;SDS011;63468;52.058;4.824;2023-06-10T03:32:53;13.48;;;11.60;;
74908;SDS011;63468;52.058;4.824;2023-06-10T03:35:18;12.88;;;11.40;;
74908;SDS011;63468;52.058;4.824;2023-06-10T03:37:43;14.48;;;11.88;;
74908;SDS011;63468;52.058;4.824;2023-06-10T03:40:10;14.68;;;11.57;;
74908;SDS011;63468;52.058;4.824;2023-06-10T03:42:36;13.50;;;11.55;;
74908;SDS011;63468;52.058;4.824;2023-06-10T03:45:02;13.60;;;11.73;;
74908;SDS011;63468;52.058;4.824;2023-06-10T03:47:32;14.18;;;11.63;;
74908;SDS011;63468;52.058;4.824;2023-06-10T03:49:58;13.37;;;11.80;;
74908;SDS011;63468;52.058;4.824;2023-06-10T03:52:24;15.27;;;12.27;;
74908;SDS011;63468;52.058;4.824;2023-06-10T03:54:49;13.48;;;11.57;;
74908;SDS011;63468;52.058;4.824;2023-06-10T03:57:15;14.70;;;11.43;;
74908;SDS011;63468;52.058;4.824;2023-06-10T03:59:40;19.45;;;12.18;;
74908;SDS011;63468;52.058;4.824;2023-06-10T04:02:05;14.52;;;11.90;;
74908;SDS011;63468;52.058;4.824;2023-06-10T04:04:31;14.45;;;11.45;;
74908;SDS011;63468;52.058;4.824;2023-06-10T04:06:57;13.52;;;11.10;;
74908;SDS011;63468;52.058;4.824;2023-06-10T04:09:22;13.10;;;11.15;;
74908;SDS011;63468;52.058;4.824;2023-06-10T04:11:48;13.07;;;11.15;;
74908;SDS011;63468;52.058;4.824;2023-06-10T04:14:13;13.93;;;11.15;;
74908;SDS011;63468;52.058;4.824;2023-06-10T04:16:38;13.93;;;12.48;;
74908;SDS011;63468;52.058;4.824;2023-06-10T04:19:03;13.60;;;11.05;;
74908;SDS011;63468;52.058;4.824;2023-06-10T04:21:29;18.02;;;12.20;;
74908;SDS011;63468;52.058;4.824;2023-06-10T04:23:55;13.05;;;10.60;;
74908;SDS011;63468;52.058;4.824;2023-06-10T04:26:20;13.82;;;11.52;;
74908;SDS011;63468;52.058;4.824;2023-06-10T04:28:45;14.25;;;11.52;;
74908;SDS011;63468;52.058;4.824;2023-06-10T04:31:10;14.88;;;10.88;;
74908;SDS011;63468;52.058;4.824;2023-06-10T04:33:36;13.63;;;11.38;;
74908;SDS011;63468;52.058;4.824;2023-06-10T04:36:02;17.30;;;11.25;;
74908;SDS011;63468;52.058;4.824;2023-06-10T04:38:27;13.65;;;10.90;;
74908;SDS011;63468;52.058;4.824;2023-06-10T04:40:53;14.27;;;11.55;;
74908;SDS011;63468;52.058;4.824;2023-06-10T04:43:18;19.40;;;11.27;;
74908;SDS011;63468;52.058;4.824;2023-06-10T04:45:43;12.23;;;10.55;;
74908;SDS011;63468;52.058;4.824;2023-06-10T04:48:12;17.75;;;11.40;;
74908;SDS011;63468;52.058;4.824;2023-06-10T04:50:38;16.63;;;11.77;;
74908;SDS011;63468;52.058;4.824;2023-06-10T04:53:03;14.60;;;11.52;;
74908;SDS011;63468;52.058;4.824;2023-06-10T04:55:29;16.98;;;11.50;;
74908;SDS011;63468;52.058;4.824;2023-06-10T04:57:54;13.50;;;11.43;;
74908;SDS011;63468;52.058;4.824;2023-06-10T05:00:20;15.63;;;11.63;;
74908;SDS011;63468;52.058;4.824;2023-06-10T05:02:45;12.45;;;11.15;;
74908;SDS011;63468;52.058;4.824;2023-06-10T05:05:14;13.45;;;10.75;;
74908;SDS011;63468;52.058;4.824;2023-06-10T05:07:40;12.57;;;11.27;;
74908;SDS011;63468;52.058;4.824;2023-06-10T05:10:06;13.30;;;11.32;;
74908;SDS011;63468;52.058;4.824;2023-06-10T05:12:31;14.60;;;11.55;;
74908;SDS011;63468;52.058;4.824;2023-06-10T05:14:57;13.52;;;10.98;;
74908;SDS011;63468;52.058;4.824;2023-06-10T05:17:22;13.73;;;11.25;;
74908;SDS011;63468;52.058;4.824;2023-06-10T05:19:48;13.15;;;10.50;;
74908;SDS011;63468;52.058;4.824;2023-06-10T05:22:13;14.57;;;11.20;;
74908;SDS011;63468;52.058;4.824;2023-06-10T05:24:39;13.63;;;11.30;;
74908;SDS011;63468;52.058;4.824;2023-06-10T05:27:05;13.63;;;10.88;;
74908;SDS011;63468;52.058;4.824;2023-06-10T05:29:31;13.85;;;11.00;;
74908;SDS011;63468;52.058;4.824;2023-06-10T05:31:57;16.17;;;11.13;;
74908;SDS011;63468;52.058;4.824;2023-06-10T05:34:25;15.40;;;11.23;;
74908;SDS011;63468;52.058;4.824;2023-06-10T05:36:50;15.90;;;11.68;;
74908;SDS011;63468;52.058;4.824;2023-06-10T05:39:15;16.30;;;11.18;;
74908;SDS011;63468;52.058;4.824;2023-06-10T05:41:41;16.55;;;11.15;;
74908;SDS011;63468;52.058;4.824;2023-06-10T05:44:06;13.70;;;11.00;;
74908;SDS011;63468;52.058;4.824;2023-06-10T05:46:31;14.77;;;11.27;;
74908;SDS011;63468;52.058;4.824;2023-06-10T05:48:57;13.38;;;11.68;;
74908;SDS011;63468;52.058;4.824;2023-06-10T05:51:22;14.13;;;11.57;;
74908;SDS011;63468;52.058;4.824;2023-06-10T05:53:47;14.45;;;11.50;;
74908;SDS011;63468;52.058;4.824;2023-06-10T05:56:13;13.95;;;11.50;;
74908;SDS011;63468;52.058;4.824;2023-06-10T05:58:39;17.92;;;11.55;;
74908;SDS011;63468;52.058;4.824;2023-06-10T06:01:05;15.65;;;11.73;;
74908;SDS011;63468;52.058;4.824;2023-06-10T06:03:30;13.77;;;11.13;;
74908;SDS011;63468;52.058;4.824;2023-06-10T06:05:55;13.10;;;10.55;;
74908;SDS011;63468;52.058;4.824;2023-06-10T06:08:21;15.82;;;11.65;;
74908;SDS011;63468;52.058;4.824;2023-06-10T06:10:46;15.05;;;11.82;;
74908;SDS011;63468;52.058;4.824;2023-06-10T06:13:12;13.85;;;11.00;;
74908;SDS011;63468;52.058;4.824;2023-06-10T06:15:38;14.07;;;11.25;;
74908;SDS011;63468;52.058;4.824;2023-06-10T06:18:03;16.67;;;10.80;;
74908;SDS011;63468;52.058;4.824;2023-06-10T06:20:29;15.45;;;11.18;;
74908;SDS011;63468;52.058;4.824;2023-06-10T06:22:54;13.93;;;11.30;;
74908;SDS011;63468;52.058;4.824;2023-06-10T06:25:19;14.18;;;10.80;;
74908;SDS011;63468;52.058;4.824;2023-06-10T06:27:45;14.52;;;10.90;;
74908;SDS011;63468;52.058;4.824;2023-06-10T06:30:10;12.82;;;10.80;;
74908;SDS011;63468;52.058;4.824;2023-06-10T06:32:36;14.75;;;10.85;;
74908;SDS011;63468;52.058;4.824;2023-06-10T06:35:01;18.20;;;11.15;;
74908;SDS011;63468;52.058;4.824;2023-06-10T06:37:26;14.15;;;11.05;;
74908;SDS011;63468;52.058;4.824;2023-06-10T06:39:52;13.55;;;11.00;;
74908;SDS011;63468;52.058;4.824;2023-06-10T06:42:18;14.52;;;10.82;;
74908;SDS011;63468;52.058;4.824;2023-06-10T06:44:44;13.85;;;11.82;;
74908;SDS011;63468;52.058;4.824;2023-06-10T06:47:09;13.27;;;11.43;;
74908;SDS011;63468;52.058;4.824;2023-06-10T06:49:34;15.38;;;11.38;;
74908;SDS011;63468;52.058;4.824;2023-06-10T06:52:00;12.65;;;11.32;;
74908;SDS011;63468;52.058;4.824;2023-06-10T06:54:26;11.95;;;10.45;;
74908;SDS011;63468;52.058;4.824;2023-06-10T06:56:51;13.57;;;11.63;;
74908;SDS011;63468;52.058;4.824;2023-06-10T06:59:16;17.30;;;11.65;;
74908;SDS011;63468;52.058;4.824;2023-06-10T07:01:44;13.00;;;10.95;;
74908;SDS011;63468;52.058;4.824;2023-06-10T07:04:10;13.10;;;11.35;;
74908;SDS011;63468;52.058;4.824;2023-06-10T07:06:35;12.63;;;11.35;;
74908;SDS011;63468;52.058;4.824;2023-06-10T07:09:01;12.93;;;11.63;;
74908;SDS011;63468;52.058;4.824;2023-06-10T07:11:27;16.67;;;11.02;;
74908;SDS011;63468;52.058;4.824;2023-06-10T07:13:53;12.38;;;11.07;;
74908;SDS011;63468;52.058;4.824;2023-06-10T07:16:18;12.25;;;10.95;;
74908;SDS011;63468;52.058;4.824;2023-06-10T07:18:45;14.55;;;11.60;;
74908;SDS011;63468;52.058;4.824;2023-06-10T07:21:11;14.63;;;12.00;;
74908;SDS011;63468;52.058;4.824;2023-06-10T07:23:36;12.88;;;11.10;;
74908;SDS011;63468;52.058;4.824;2023-06-10T07:26:01;15.38;;;10.65;;
74908;SDS011;63468;52.058;4.824;2023-06-10T07:28:27;16.80;;;11.30;;
74908;SDS011;63468;52.058;4.824;2023-06-10T07:30:52;17.48;;;11.23;;
74908;SDS011;63468;52.058;4.824;2023-06-10T07:33:17;14.00;;;11.23;;
74908;SDS011;63468;52.058;4.824;2023-06-10T07:35:43;15.68;;;11.32;;
74908;SDS011;63468;52.058;4.824;2023-06-10T07:38:08;14.95;;;11.52;;
74908;SDS011;63468;52.058;4.824;2023-06-10T07:40:33;13.70;;;11.50;;
74908;SDS011;63468;52.058;4.824;2023-06-10T07:42:59;15.07;;;11.75;;
74908;SDS011;63468;52.058;4.824;2023-06-10T07:45:24;11.68;;;10.27;;
74908;SDS011;63468;52.058;4.824;2023-06-10T07:47:50;12.45;;;11.15;;
74908;SDS011;63468;52.058;4.824;2023-06-10T07:50:15;12.60;;;10.40;;
74908;SDS011;63468;52.058;4.824;2023-06-10T07:52:40;12.43;;;10.70;;
74908;SDS011;63468;52.058;4.824;2023-06-10T07:55:06;13.25;;;11.52;;
74908;SDS011;63468;52.058;4.824;2023-06-10T07:57:32;13.50;;;11.35;;
74908;SDS011;63468;52.058;4.824;2023-06-10T07:59:59;12.60;;;11.02;;
74908;SDS011;63468;52.058;4.824;2023-06-10T08:02:26;14.98;;;11.65;;
74908;SDS011;63468;52.058;4.824;2023-06-10T08:04:51;12.13;;;10.90;;
74908;SDS011;63468;52.058;4.824;2023-06-10T08:07:17;13.25;;;10.82;;
74908;SDS011;63468;52.058;4.824;2023-06-10T08:09:44;14.88;;;11.02;;
74908;SDS011;63468;52.058;4.824;2023-06-10T08:12:09;14.15;;;10.90;;
74908;SDS011;63468;52.058;4.824;2023-06-10T08:14:34;13.85;;;11.63;;
74908;SDS011;63468;52.058;4.824;2023-06-10T08:17:00;15.52;;;11.82;;
74908;SDS011;63468;52.058;4.824;2023-06-10T08:19:25;15.27;;;11.38;;
74908;SDS011;63468;52.058;4.824;2023-06-10T08:21:50;13.02;;;11.27;;
74908;SDS011;63468;52.058;4.824;2023-06-10T08:24:16;12.90;;;11.60;;
74908;SDS011;63468;52.058;4.824;2023-06-10T08:26:43;12.65;;;11.10;;
74908;SDS011;63468;52.058;4.824;2023-06-10T08:29:08;14.13;;;12.25;;
74908;SDS011;63468;52.058;4.824;2023-06-10T08:31:34;12.63;;;11.35;;
74908;SDS011;63468;52.058;4.824;2023-06-10T08:33:59;14.45;;;11.82;;
74908;SDS011;63468;52.058;4.824;2023-06-10T08:36:24;13.90;;;11.80;;
74908;SDS011;63468;52.058;4.824;2023-06-10T08:38:50;15.43;;;12.23;;
74908;SDS011;63468;52.058;4.824;2023-06-10T08:41:17;13.80;;;12.43;;
74908;SDS011;63468;52.058;4.824;2023-06-10T08:43:48;13.68;;;12.20;;
74908;SDS011;63468;52.058;4.824;2023-06-10T08:46:21;13.25;;;11.85;;
74908;SDS011;63468;52.058;4.824;2023-06-10T08:48:47;13.88;;;12.00;;
74908;SDS011;63468;52.058;4.824;2023-06-10T08:51:13;13.18;;;11.77;;
74908;SDS011;63468;52.058;4.824;2023-06-10T08:53:44;13.77;;;12.32;;
74908;SDS011;63468;52.058;4.824;2023-06-10T08:56:14;13.43;;;12.02;;
74908;SDS011;63468;52.058;4.824;2023-06-10T08:58:41;13.93;;;11.68;;
74908;SDS011;63468;52.058;4.824;2023-06-10T09:01:07;14.57;;;11.32;;
74908;SDS011;63468;52.058;4.824;2023-06-10T09:03:33;13.10;;;11.85;;
74908;SDS011;63468;52.058;4.824;2023-06-10T09:06:00;15.10;;;12.10;;
74908;SDS011;63468;52.058;4.824;2023-06-10T09:08:26;14.75;;;12.07;;
74908;SDS011;63468;52.058;4.824;2023-06-10T09:10:51;19.85;;;11.55;;
74908;SDS011;63468;52.058;4.824;2023-06-10T09:13:17;15.27;;;13.05;;
74908;SDS011;63468;52.058;4.824;2023-06-10T09:15:43;15.20;;;13.00;;
74908;SDS011;63468;52.058;4.824;2023-06-10T09:18:09;13.75;;;12.35;;
74908;SDS011;63468;52.058;4.824;2023-06-10T09:20:35;15.05;;;13.45;;
74908;SDS011;63468;52.058;4.824;2023-06-10T09:23:00;13.05;;;11.82;;
74908;SDS011;63468;52.058;4.824;2023-06-10T09:25:36;23.83;;;18.88;;
74908;SDS011;63468;52.058;4.824;2023-06-10T09:28:02;26.23;;;21.10;;
74908;SDS011;63468;52.058;4.824;2023-06-10T09:30:29;14.35;;;12.93;;
74908;SDS011;63468;52.058;4.824;2023-06-10T09:32:56;13.95;;;12.55;;
74908;SDS011;63468;52.058;4.824;2023-06-10T09:35:23;15.48;;;13.75;;
74908;SDS011;63468;52.058;4.824;2023-06-10T09:37:53;14.18;;;12.38;;
74908;SDS011;63468;52.058;4.824;2023-06-10T09:40:19;14.48;;;13.18;;
74908;SDS011;63468;52.058;4.824;2023-06-10T09:42:45;14.48;;;13.00;;
74908;SDS011;63468;52.058;4.824;2023-06-10T09:45:10;14.05;;;12.52;;
74908;SDS011;63468;52.058;4.824;2023-06-10T09:47:35;15.13;;;13.50;;
74908;SDS011;63468;52.058;4.824;2023-06-10T09:50:01;13.75;;;12.45;;
74908;SDS011;63468;52.058;4.824;2023-06-10T09:52:27;16.65;;;13.85;;
74908;SDS011;63468;52.058;4.824;2023-06-10T09:54:55;15.85;;;13.05;;
74908;SDS011;63468;52.058;4.824;2023-06-10T09:57:24;14.23;;;12.82;;
74908;SDS011;63468;52.058;4.824;2023-06-10T09:59:53;14.30;;;13.00;;
74908;SDS011;63468;52.058;4.824;2023-06-10T10:02:21;16.33;;;13.05;;
74908;SDS011;63468;52.058;4.824;2023-06-10T10:04:47;13.93;;;12.52;;
74908;SDS011;63468;52.058;4.824;2023-06-10T10:07:12;15.07;;;13.55;;
74908;SDS011;63468;52.058;4.824;2023-06-10T10:09:39;16.73;;;13.18;;
74908;SDS011;63468;52.058;4.824;2023-06-10T10:12:11;14.38;;;12.90;;
74908;SDS011;63468;52.058;4.824;2023-06-10T10:14:38;14.57;;;13.05;;
74908;SDS011;63468;52.058;4.824;2023-06-10T10:17:07;17.90;;;13.52;;
74908;SDS011;63468;52.058;4.824;2023-06-10T10:19:37;13.80;;;12.30;;
74908;SDS011;63468;52.058;4.824;2023-06-10T10:22:08;15.35;;;12.90;;
74908;SDS011;63468;52.058;4.824;2023-06-10T10:24:36;14.38;;;12.30;;
74908;SDS011;63468;52.058;4.824;2023-06-10T10:27:07;14.23;;;12.82;;
74908;SDS011;63468;52.058;4.824;2023-06-10T10:29:39;14.45;;;12.75;;
74908;SDS011;63468;52.058;4.824;2023-06-10T10:32:06;14.05;;;12.73;;
74908;SDS011;63468;52.058;4.824;2023-06-10T10:34:39;13.35;;;12.07;;
74908;SDS011;63468;52.058;4.824;2023-06-10T10:37:10;14.55;;;13.15;;
74908;SDS011;63468;52.058;4.824;2023-06-10T10:39:35;15.40;;;12.38;;
74908;SDS011;63468;52.058;4.824;2023-06-10T10:42:01;13.75;;;12.35;;
74908;SDS011;63468;52.058;4.824;2023-06-10T10:44:28;15.88;;;13.07;;
74908;SDS011;63468;52.058;4.824;2023-06-10T10:46:55;14.63;;;13.23;;
74908;SDS011;63468;52.058;4.824;2023-06-10T10:49:20;14.60;;;13.30;;
74908;SDS011;63468;52.058;4.824;2023-06-10T10:51:57;14.55;;;13.05;;
74908;SDS011;63468;52.058;4.824;2023-06-10T10:54:29;13.88;;;12.45;;
74908;SDS011;63468;52.058;4.824;2023-06-10T10:59:43;14.35;;;13.00;;
74908;SDS011;63468;52.058;4.824;2023-06-10T11:02:10;14.30;;;12.85;;
74908;SDS011;63468;52.058;4.824;2023-06-10T11:04:35;14.35;;;13.02;;
74908;SDS011;63468;52.058;4.824;2023-06-10T11:07:07;14.70;;;13.30;;
74908;SDS011;63468;52.058;4.824;2023-06-10T11:09:32;15.00;;;13.52;;
74908;SDS011;63468;52.058;4.824;2023-06-10T11:11:58;14.48;;;13.07;;
74908;SDS011;63468;52.058;4.824;2023-06-10T11:14:27;14.20;;;12.85;;
74908;SDS011;63468;52.058;4.824;2023-06-10T11:16:53;14.02;;;12.73;;
74908;SDS011;63468;52.058;4.824;2023-06-10T11:19:31;15.48;;;13.88;;
74908;SDS011;63468;52.058;4.824;2023-06-10T11:21:58;15.73;;;14.13;;
74908;SDS011;63468;52.058;4.824;2023-06-10T11:24:25;15.05;;;13.45;;
74908;SDS011;63468;52.058;4.824;2023-06-10T11:26:51;14.40;;;13.00;;
74908;SDS011;63468;52.058;4.824;2023-06-10T11:29:16;15.18;;;13.65;;
74908;SDS011;63468;52.058;4.824;2023-06-10T11:31:43;16.48;;;13.23;;
74908;SDS011;63468;52.058;4.824;2023-06-10T11:34:09;14.85;;;13.35;;
74908;SDS011;63468;52.058;4.824;2023-06-10T11:36:42;15.05;;;13.65;;
74908;SDS011;63468;52.058;4.824;2023-06-10T11:39:10;14.55;;;13.15;;
74908;SDS011;63468;52.058;4.824;2023-06-10T11:41:35;17.05;;;13.75;;
74908;SDS011;63468;52.058;4.824;2023-06-10T11:44:10;14.52;;;13.13;;
74908;SDS011;63468;52.058;4.824;2023-06-10T11:46:36;15.02;;;13.27;;
74908;SDS011;63468;52.058;4.824;2023-06-10T11:49:02;16.00;;;13.48;;
74908;SDS011;63468;52.058;4.824;2023-06-10T11:51:29;13.70;;;12.40;;
74908;SDS011;63468;52.058;4.824;2023-06-10T11:53:57;14.65;;;13.18;;
74908;SDS011;63468;52.058;4.824;2023-06-10T11:56:23;14.10;;;12.85;;
74908;SDS011;63468;52.058;4.824;2023-06-10T11:58:56;14.23;;;12.93;;
74908;SDS011;63468;52.058;4.824;2023-06-10T12:01:23;14.20;;;12.90;;
74908;SDS011;63468;52.058;4.824;2023-06-10T12:04:00;14.43;;;13.13;;
74908;SDS011;63468;52.058;4.824;2023-06-10T12:06:26;13.70;;;12.10;;
74908;SDS011;63468;52.058;4.824;2023-06-10T12:08:53;13.90;;;12.48;;
74908;SDS011;63468;52.058;4.824;2023-06-10T12:11:18;14.95;;;13.20;;
74908;SDS011;63468;52.058;4.824;2023-06-10T12:13:48;14.40;;;13.00;;
74908;SDS011;63468;52.058;4.824;2023-06-10T12:16:14;14.35;;;12.90;;
74908;SDS011;63468;52.058;4.824;2023-06-10T12:18:41;14.63;;;13.23;;
74908;SDS011;63468;52.058;4.824;2023-06-10T12:21:23;14.50;;;13.18;;
74908;SDS011;63468;52.058;4.824;2023-06-10T12:26:45;14.38;;;13.07;;
74908;SDS011;63468;52.058;4.824;2023-06-10T12:32:03;13.90;;;12.55;;
74908;SDS011;63468;52.058;4.824;2023-06-10T12:34:31;14.25;;;12.77;;
74908;SDS011;63468;52.058;4.824;2023-06-10T12:37:04;14.73;;;13.25;;
74908;SDS011;63468;52.058;4.824;2023-06-10T12:39:31;14.20;;;12.80;;
74908;SDS011;63468;52.058;4.824;2023-06-10T12:41:57;18.05;;;13.10;;
74908;SDS011;63468;52.058;4.824;2023-06-10T12:44:29;14.18;;;12.65;;
74908;SDS011;63468;52.058;4.824;2023-06-10T12:46:58;14.00;;;12.55;;
74908;SDS011;63468;52.058;4.824;2023-06-10T12:49:24;14.80;;;13.43;;
74908;SDS011;63468;52.058;4.824;2023-06-10T12:51:50;14.43;;;12.95;;
74908;SDS011;63468;52.058;4.824;2023-06-10T12:54:15;14.07;;;12.65;;
74908;SDS011;63468;52.058;4.824;2023-06-10T12:56:40;14.35;;;12.77;;
74908;SDS011;63468;52.058;4.824;2023-06-10T12:59:06;13.68;;;12.38;;
74908;SDS011;63468;52.058;4.824;2023-06-10T13:01:31;14.70;;;13.27;;
74908;SDS011;63468;52.058;4.824;2023-06-10T13:03:57;13.90;;;12.52;;
74908;SDS011;63468;52.058;4.824;2023-06-10T13:06:23;14.50;;;12.93;;
74908;SDS011;63468;52.058;4.824;2023-06-10T13:08:48;13.90;;;12.48;;
74908;SDS011;63468;52.058;4.824;2023-06-10T13:11:13;14.23;;;12.90;;
74908;SDS011;63468;52.058;4.824;2023-06-10T13:13:39;13.88;;;12.52;;
74908;SDS011;63468;52.058;4.824;2023-06-10T13:16:04;13.90;;;12.50;;
74908;SDS011;63468;52.058;4.824;2023-06-10T13:18:30;13.65;;;12.18;;
74908;SDS011;63468;52.058;4.824;2023-06-10T13:21:02;13.90;;;12.60;;
74908;SDS011;63468;52.058;4.824;2023-06-10T13:23:27;13.98;;;12.68;;
74908;SDS011;63468;52.058;4.824;2023-06-10T13:25:53;13.73;;;12.43;;
74908;SDS011;63468;52.058;4.824;2023-06-10T13:28:18;14.52;;;11.98;;
74908;SDS011;63468;52.058;4.824;2023-06-10T13:30:44;13.35;;;11.55;;
74908;SDS011;63468;52.058;4.824;2023-06-10T13:33:09;13.07;;;11.70;;
74908;SDS011;63468;52.058;4.824;2023-06-10T13:35:34;12.65;;;11.45;;
74908;SDS011;63468;52.058;4.824;2023-06-10T13:38:00;13.55;;;12.15;;
74908;SDS011;63468;52.058;4.824;2023-06-10T13:40:26;13.60;;;12.30;;
74908;SDS011;63468;52.058;4.824;2023-06-10T13:42:51;14.10;;;12.80;;
74908;SDS011;63468;52.058;4.824;2023-06-10T13:45:17;14.07;;;12.73;;
74908;SDS011;63468;52.058;4.824;2023-06-10T13:47:43;13.55;;;12.25;;
74908;SDS011;63468;52.058;4.824;2023-06-10T13:50:08;13.85;;;12.55;;
74908;SDS011;63468;52.058;4.824;2023-06-10T13:52:33;14.88;;;13.25;;
74908;SDS011;63468;52.058;4.824;2023-06-10T13:54:59;13.70;;;12.40;;
74908;SDS011;63468;52.058;4.824;2023-06-10T13:57:24;13.90;;;12.60;;
74908;SDS011;63468;52.058;4.824;2023-06-10T13:59:50;13.80;;;12.55;;
74908;SDS011;63468;52.058;4.824;2023-06-10T14:02:15;13.82;;;12.52;;
74908;SDS011;63468;52.058;4.824;2023-06-10T14:04:40;13.57;;;12.27;;
74908;SDS011;63468;52.058;4.824;2023-06-10T14:07:06;14.40;;;13.00;;
74908;SDS011;63468;52.058;4.824;2023-06-10T14:09:31;13.30;;;12.00;;
74908;SDS011;63468;52.058;4.824;2023-06-10T14:11:56;13.02;;;11.82;;
74908;SDS011;63468;52.058;4.824;2023-06-10T14:14:22;13.43;;;12.13;;
74908;SDS011;63468;52.058;4.824;2023-06-10T14:16:47;15.65;;;13.95;;
74908;SDS011;63468;52.058;4.824;2023-06-10T14:19:13;13.88;;;12.48;;
74908;SDS011;63468;52.058;4.824;2023-06-10T14:21:38;13.23;;;11.93;;
74908;SDS011;63468;52.058;4.824;2023-06-10T14:24:03;12.73;;;11.63;;
74908;SDS011;63468;52.058;4.824;2023-06-10T14:26:29;12.88;;;11.57;;
74908;SDS011;63468;52.058;4.824;2023-06-10T14:28:54;13.45;;;12.05;;
74908;SDS011;63468;52.058;4.824;2023-06-10T14:31:19;13.30;;;11.85;;
74908;SDS011;63468;52.058;4.824;2023-06-10T14:33:45;13.07;;;11.75;;